METAR Formatted Surface Weather Observation
Issued by NWS

Home | Current Version | Previous Version | Text Only | Print | Product List | Glossary On
Versions: 1 2
000
SAHW31 PHFO 222056
MTRMKK
METAR PHMK 222054Z 04010G15KT 10SM FEW030 29/25 A3003 RMK AO2 SLP169
T02940250 50000 $


USA.gov is the U.S. government's official web portal to all federal, state and local government web resources and services.